createdAt,value
2022-10-08T00:01:03.487Z,16.25
2022-10-08T00:03:05.068Z,17.63
2022-10-08T00:05:07.030Z,11.07
2022-10-08T00:07:08.914Z,12.30
2022-10-08T00:09:10.585Z,17.02
2022-10-08T00:11:18.824Z,10.88
2022-10-08T00:13:21.569Z,13.68
2022-10-08T00:15:42.268Z,16.50
2022-10-08T00:17:43.886Z,16.60
2022-10-08T00:19:45.518Z,14.38
2022-10-08T00:21:47.793Z,13.07
2022-10-08T00:23:50.846Z,12.63
2022-10-08T00:25:52.482Z,15.48
2022-10-08T00:27:54.498Z,14.90
2022-10-08T00:29:56.068Z,15.25
2022-10-08T00:31:57.776Z,14.32
2022-10-08T00:34:00.908Z,12.40
2022-10-08T00:36:07.999Z,11.25
2022-10-08T00:38:09.651Z,12.45
2022-10-08T00:40:11.227Z,13.93
2022-10-08T00:42:13.372Z,12.23
2022-10-08T00:44:54.392Z,12.20
2022-10-08T00:46:56.151Z,12.02
2022-10-08T00:49:03.772Z,12.70
2022-10-08T00:51:05.552Z,15.23
2022-10-08T00:53:08.364Z,14.23
2022-10-08T00:55:11.767Z,12.00
2022-10-08T00:57:13.438Z,11.20
2022-10-08T00:59:15.816Z,13.27
2022-10-08T01:01:17.632Z,12.02
2022-10-08T01:03:19.480Z,12.82
2022-10-08T01:05:43.173Z,12.15
2022-10-08T01:07:49.508Z,11.03
2022-10-08T01:10:20.447Z,12.80
2022-10-08T01:12:41.600Z,14.00
2022-10-08T01:15:01.674Z,10.90
2022-10-08T01:17:07.171Z,11.48
2022-10-08T01:19:42.779Z,11.48
2022-10-08T01:22:14.781Z,8.77
2022-10-08T01:24:47.909Z,12.90
2022-10-08T01:27:04.233Z,17.35
2022-10-08T01:29:16.506Z,11.05
2022-10-08T01:32:06.064Z,11.23
2022-10-08T01:34:18.910Z,11.18
2022-10-08T01:36:21.784Z,11.88
2022-10-08T01:38:26.202Z,11.93
2022-10-08T01:40:34.162Z,11.07
2022-10-08T01:42:37.206Z,14.07
2022-10-08T01:44:46.451Z,12.73
2022-10-08T01:46:50.341Z,11.38
2022-10-08T01:51:03.885Z,10.95
2022-10-08T01:53:09.708Z,9.63
2022-10-08T01:55:22.275Z,10.05
2022-10-08T01:57:24.849Z,10.75
2022-10-08T01:59:40.323Z,11.55
2022-10-08T02:02:00.988Z,9.40
2022-10-08T02:04:21.196Z,12.48
2022-10-08T02:06:23.505Z,13.05
2022-10-08T02:08:25.277Z,9.35
2022-10-08T02:10:26.952Z,9.75
2022-10-08T02:12:29.027Z,16.67
2022-10-08T02:14:32.238Z,11.23
2022-10-08T02:16:35.000Z,9.73
2022-10-08T02:18:42.468Z,10.43
2022-10-08T02:20:55.885Z,12.20
2022-10-08T02:23:06.794Z,8.98
2022-10-08T02:25:31.784Z,12.07
2022-10-08T02:27:55.192Z,12.57
2022-10-08T02:30:17.025Z,15.70
2022-10-08T02:32:22.697Z,15.02
2022-10-08T02:34:29.412Z,10.63
2022-10-08T02:36:35.406Z,10.95
2022-10-08T02:38:40.912Z,8.15
2022-10-08T02:40:45.637Z,9.95
2022-10-08T02:42:52.414Z,10.50
2022-10-08T02:45:00.015Z,8.55
2022-10-08T02:47:04.777Z,12.30
2022-10-08T02:49:10.668Z,14.82
2022-10-08T02:51:14.576Z,13.15
2022-10-08T02:53:18.319Z,12.35
2022-10-08T02:55:44.989Z,10.35
2022-10-08T02:57:53.368Z,9.80
2022-10-08T02:59:55.553Z,12.25
2022-10-08T03:02:05.338Z,12.45
2022-10-08T03:04:11.380Z,14.20
2022-10-08T03:06:13.566Z,12.65
2022-10-08T03:08:15.994Z,12.15
2022-10-08T03:10:19.068Z,8.55
2022-10-08T03:12:20.907Z,10.90
2022-10-08T03:14:24.460Z,12.30
2022-10-08T03:16:32.544Z,10.73
2022-10-08T03:18:34.680Z,15.50
2022-10-08T03:20:42.603Z,11.40
2022-10-08T03:22:44.404Z,15.85
2022-10-08T03:24:46.733Z,14.07
2022-10-08T03:26:48.545Z,20.42
2022-10-08T03:28:53.189Z,14.93
2022-10-08T03:30:54.853Z,14.95
2022-10-08T03:32:56.445Z,11.07
2022-10-08T03:34:58.151Z,13.85
2022-10-08T03:36:59.747Z,10.55
2022-10-08T03:39:01.324Z,8.48
2022-10-08T03:41:03.268Z,11.13
2022-10-08T03:43:04.903Z,10.35
2022-10-08T03:45:06.981Z,12.63
2022-10-08T03:47:08.813Z,12.25
2022-10-08T03:49:10.433Z,15.70
2022-10-08T03:51:13.454Z,9.73
2022-10-08T03:53:15.134Z,9.48
2022-10-08T03:55:16.821Z,12.70
2022-10-08T03:57:18.508Z,11.25
2022-10-08T03:59:20.225Z,9.00
2022-10-08T04:01:22.243Z,12.05
2022-10-08T04:03:23.996Z,13.38
2022-10-08T04:05:25.809Z,9.27
2022-10-08T04:07:27.781Z,16.70
2022-10-08T04:09:29.383Z,17.25
2022-10-08T04:11:31.088Z,12.10
2022-10-08T04:13:33.086Z,11.63
2022-10-08T04:15:34.736Z,10.55
2022-10-08T04:17:36.672Z,9.25
2022-10-08T04:19:38.245Z,13.10
2022-10-08T04:21:40.136Z,14.65
2022-10-08T04:23:42.927Z,11.95
2022-10-08T04:25:54.453Z,11.98
2022-10-08T04:27:56.052Z,11.27
2022-10-08T04:29:57.662Z,14.98
2022-10-08T04:31:59.229Z,12.82
2022-10-08T04:34:00.878Z,19.13
2022-10-08T04:36:07.673Z,9.38
2022-10-08T04:38:09.427Z,10.52
2022-10-08T04:40:11.313Z,10.40
2022-10-08T04:42:13.189Z,19.38
2022-10-08T04:44:14.952Z,14.57
2022-10-08T04:46:19.375Z,14.25
2022-10-08T04:48:21.062Z,20.42
2022-10-08T04:50:22.648Z,14.52
2022-10-08T04:52:24.340Z,14.43
2022-10-08T04:54:26.003Z,13.02
2022-10-08T04:56:30.394Z,13.70
2022-10-08T04:58:31.971Z,11.98
2022-10-08T05:00:35.726Z,13.23
2022-10-08T05:02:37.442Z,19.60
2022-10-08T05:04:39.133Z,17.48
2022-10-08T05:06:40.824Z,14.18
2022-10-08T05:08:43.755Z,24.52
2022-10-08T05:10:49.479Z,20.00
2022-10-08T05:12:51.201Z,13.38
2022-10-08T05:14:52.886Z,16.25
2022-10-08T05:16:54.602Z,17.88
2022-10-08T05:18:56.505Z,12.95
2022-10-08T05:21:02.700Z,15.77
2022-10-08T05:23:04.346Z,15.77
2022-10-08T05:25:06.575Z,13.60
2022-10-08T05:27:08.450Z,17.02
2022-10-08T05:29:10.922Z,14.57
2022-10-08T05:31:13.257Z,13.75
2022-10-08T05:33:14.969Z,16.40
2022-10-08T05:35:16.698Z,17.27
2022-10-08T05:37:18.623Z,20.02
2022-10-08T05:39:20.271Z,15.18
2022-10-08T05:41:24.626Z,15.80
2022-10-08T05:43:26.225Z,14.07
2022-10-08T05:45:27.830Z,17.00
2022-10-08T05:47:29.447Z,18.50
2022-10-08T05:49:31.215Z,16.73
2022-10-08T05:51:33.087Z,21.10
2022-10-08T05:53:36.745Z,23.42
2022-10-08T05:55:38.342Z,16.13
2022-10-08T05:57:40.352Z,16.90
2022-10-08T05:59:42.046Z,20.30
2022-10-08T06:01:43.836Z,15.02
2022-10-08T06:03:51.972Z,15.10
2022-10-08T06:05:54.379Z,18.40
2022-10-08T06:07:57.612Z,16.17
2022-10-08T06:09:59.269Z,19.85
2022-10-08T06:12:00.965Z,24.58
2022-10-08T06:14:03.158Z,21.58
2022-10-08T06:16:07.846Z,23.25
2022-10-08T06:18:09.457Z,19.50
2022-10-08T06:20:11.060Z,19.70
2022-10-08T06:22:12.848Z,17.50
2022-10-08T06:24:14.609Z,15.10
2022-10-08T06:26:17.951Z,14.80
2022-10-08T06:28:19.669Z,13.73
2022-10-08T06:30:21.296Z,16.73
2022-10-08T06:32:22.899Z,22.23
2022-10-08T06:34:24.566Z,17.10
2022-10-08T06:36:27.951Z,20.17
2022-10-08T06:38:29.851Z,20.33
2022-10-08T06:40:33.205Z,18.60
2022-10-08T06:42:34.845Z,14.93
2022-10-08T06:44:36.672Z,14.93
2022-10-08T06:46:38.304Z,17.60
2022-10-08T06:48:39.972Z,14.13
2022-10-08T06:50:42.125Z,17.73
2022-10-08T06:52:44.245Z,17.60
2022-10-08T06:54:46.031Z,14.18
2022-10-08T06:56:47.686Z,17.88
2022-10-08T06:58:50.120Z,18.90
2022-10-08T07:01:05.368Z,19.25
2022-10-08T07:03:07.009Z,18.02
2022-10-08T07:05:08.765Z,16.50
2022-10-08T07:07:10.394Z,23.75
2022-10-08T07:09:13.440Z,17.25
2022-10-08T07:11:17.641Z,16.70
2022-10-08T07:13:19.237Z,16.30
2022-10-08T07:15:20.817Z,16.13
2022-10-08T07:17:22.763Z,16.88
2022-10-08T07:19:24.450Z,21.60
2022-10-08T07:21:27.520Z,16.80
2022-10-08T07:23:29.283Z,24.70
2022-10-08T07:25:30.968Z,25.50
2022-10-08T07:27:32.747Z,15.57
2022-10-08T07:29:34.329Z,24.17
2022-10-08T07:31:36.988Z,18.92
2022-10-08T07:33:41.031Z,18.40
2022-10-08T07:35:42.710Z,19.45
2022-10-08T07:37:44.322Z,21.58
2022-10-08T07:39:46.183Z,18.38
2022-10-08T07:41:49.112Z,18.90
2022-10-08T07:43:54.936Z,20.40
2022-10-08T07:45:56.828Z,25.33
2022-10-08T07:47:58.495Z,15.13
2022-10-08T07:50:00.077Z,21.58
2022-10-08T07:52:01.962Z,19.33
2022-10-08T07:54:05.336Z,25.50
2022-10-08T07:56:08.391Z,17.27
2022-10-08T07:58:10.249Z,21.23
2022-10-08T08:00:12.198Z,19.50
2022-10-08T08:02:13.869Z,22.63
2022-10-08T08:04:15.675Z,21.13
2022-10-08T08:06:17.268Z,18.35
2022-10-08T08:08:19.063Z,19.88
2022-10-08T08:10:20.665Z,22.45
2022-10-08T08:12:22.319Z,18.73
2022-10-08T08:14:23.996Z,20.63
2022-10-08T08:16:27.457Z,29.38
2022-10-08T08:18:30.583Z,18.05
2022-10-08T08:20:32.346Z,19.65
2022-10-08T08:22:34.249Z,16.88
2022-10-08T08:24:36.097Z,14.57
2022-10-08T08:26:39.201Z,17.73
2022-10-08T08:28:41.420Z,24.50
2022-10-08T08:30:43.352Z,18.98
2022-10-08T08:32:45.300Z,18.08
2022-10-08T08:34:47.436Z,16.02
2022-10-08T08:36:50.613Z,18.15
2022-10-08T08:38:52.602Z,15.20
2022-10-08T08:40:57.232Z,15.25
2022-10-08T08:42:58.820Z,12.50
2022-10-08T08:45:34.319Z,16.15
2022-10-08T08:47:39.928Z,17.17
2022-10-08T08:49:56.709Z,21.55
2022-10-08T08:52:00.428Z,13.63
2022-10-08T08:56:06.411Z,17.50
2022-10-08T08:58:34.562Z,15.25
2022-10-08T09:00:40.653Z,12.50
2022-10-08T09:03:03.909Z,15.85
2022-10-08T09:05:09.152Z,11.80
2022-10-08T09:07:18.469Z,12.40
2022-10-08T09:09:31.588Z,13.60
2022-10-08T09:11:33.657Z,13.00
2022-10-08T09:13:58.821Z,11.48
2022-10-08T09:16:00.521Z,9.00
2022-10-08T09:18:03.834Z,11.25
2022-10-08T09:20:06.029Z,10.35
2022-10-08T09:22:35.563Z,14.75
2022-10-08T09:24:37.257Z,23.83
2022-10-08T09:26:38.810Z,11.43
2022-10-08T09:28:40.738Z,12.07
2022-10-08T09:30:46.304Z,9.57
2022-10-08T09:32:49.044Z,12.68
2022-10-08T09:34:50.903Z,10.87
2022-10-08T09:36:54.359Z,16.30
2022-10-08T09:38:59.230Z,14.75
2022-10-08T09:41:07.468Z,10.48
2022-10-08T09:43:14.482Z,7.93
2022-10-08T09:45:48.561Z,10.93
2022-10-08T09:48:22.250Z,8.45
2022-10-08T09:50:23.867Z,9.63
2022-10-08T09:52:27.032Z,9.52
2022-10-08T09:54:30.904Z,13.35
2022-10-08T09:56:32.581Z,11.32
2022-10-08T09:58:35.896Z,8.27
2022-10-08T10:00:39.517Z,16.23
2022-10-08T10:04:45.528Z,9.18
2022-10-08T10:06:48.454Z,13.90
2022-10-08T10:08:54.647Z,8.40
2022-10-08T10:10:56.339Z,9.07
2022-10-08T10:13:26.706Z,6.03
2022-10-08T10:15:41.774Z,8.50
2022-10-08T10:18:02.726Z,6.55
2022-10-08T10:20:24.393Z,8.10
2022-10-08T10:23:06.551Z,10.05
2022-10-08T10:25:16.724Z,8.23
2022-10-08T10:27:33.223Z,9.38
2022-10-08T10:30:03.762Z,7.75
2022-10-08T10:32:14.560Z,8.73
2022-10-08T10:34:25.497Z,8.77
2022-10-08T10:36:31.611Z,11.35
2022-10-08T10:38:42.217Z,7.95
2022-10-08T10:40:53.480Z,8.70
2022-10-08T10:43:00.983Z,5.82
2022-10-08T10:45:19.144Z,9.48
2022-10-08T10:47:30.990Z,4.72
2022-10-08T10:49:36.042Z,8.25
2022-10-08T10:51:40.255Z,8.38
2022-10-08T10:54:06.491Z,8.40
2022-10-08T10:56:18.027Z,9.48
2022-10-08T10:58:26.441Z,6.82
2022-10-08T11:00:33.345Z,7.78
2022-10-08T11:02:43.379Z,4.63
2022-10-08T11:05:08.103Z,5.93
2022-10-08T11:07:33.277Z,9.23
2022-10-08T11:10:07.384Z,9.55
2022-10-08T11:12:17.386Z,5.72
2022-10-08T11:14:21.701Z,7.93
2022-10-08T11:16:29.604Z,7.00
2022-10-08T11:18:59.111Z,10.88
2022-10-08T11:21:38.506Z,5.95
2022-10-08T11:23:52.001Z,8.38
2022-10-08T11:26:21.482Z,7.22
2022-10-08T11:28:48.836Z,4.88
2022-10-08T11:30:56.505Z,7.43
2022-10-08T11:32:58.369Z,3.88
2022-10-08T11:35:12.176Z,6.32
2022-10-08T11:37:21.085Z,5.72
2022-10-08T11:39:34.326Z,5.50
2022-10-08T11:41:53.692Z,5.78
2022-10-08T11:43:59.109Z,6.57
2022-10-08T11:46:28.979Z,7.18
2022-10-08T11:48:36.040Z,4.97
2022-10-08T11:50:37.902Z,8.50
2022-10-08T11:52:39.684Z,3.85
2022-10-08T11:54:42.729Z,4.55
2022-10-08T11:56:46.837Z,6.57
2022-10-08T11:58:53.195Z,4.40
2022-10-08T12:01:03.714Z,7.07
2022-10-08T12:03:27.631Z,6.32
2022-10-08T12:05:51.308Z,6.60
2022-10-08T12:07:55.696Z,5.93
2022-10-08T12:10:06.182Z,6.53
2022-10-08T12:12:14.352Z,6.18
2022-10-08T12:14:16.996Z,5.75
2022-10-08T12:16:18.673Z,7.20
2022-10-08T12:18:26.320Z,5.75
2022-10-08T12:20:29.323Z,6.47
2022-10-08T12:22:30.840Z,7.35
2022-10-08T12:24:38.352Z,7.95
2022-10-08T12:27:18.356Z,12.15
2022-10-08T12:30:07.385Z,8.32
2022-10-08T12:32:08.970Z,5.75
2022-10-08T12:34:14.488Z,7.50
2022-10-08T12:36:22.247Z,4.63
2022-10-08T12:38:34.829Z,8.23
2022-10-08T12:40:45.380Z,6.93
2022-10-08T12:42:49.417Z,4.93
2022-10-08T12:45:11.997Z,5.90
2022-10-08T12:47:22.883Z,4.97
2022-10-08T12:49:24.466Z,7.60
2022-10-08T12:51:29.831Z,6.38
2022-10-08T12:53:31.589Z,4.80
2022-10-08T12:55:38.411Z,8.70
2022-10-08T12:57:40.816Z,6.25
2022-10-08T12:59:42.680Z,7.72
2022-10-08T13:01:44.896Z,5.35
2022-10-08T13:03:46.832Z,4.47
2022-10-08T13:05:49.811Z,5.78
2022-10-08T13:07:51.506Z,10.13
2022-10-08T13:09:58.645Z,6.65
2022-10-08T13:12:03.697Z,6.30
2022-10-08T13:14:05.539Z,11.27
2022-10-08T13:16:16.328Z,5.90
2022-10-08T13:18:22.411Z,6.97
2022-10-08T13:20:24.845Z,5.75
2022-10-08T13:22:26.500Z,9.63
2022-10-08T13:24:28.215Z,5.35
2022-10-08T13:26:45.361Z,9.75
2022-10-08T13:28:59.831Z,10.25
2022-10-08T13:31:02.105Z,6.18
2022-10-08T13:33:11.128Z,11.23
2022-10-08T13:35:25.038Z,5.75
2022-10-08T13:39:34.692Z,6.35
2022-10-08T13:41:36.455Z,6.28
2022-10-08T13:43:39.169Z,15.40
2022-10-08T13:45:40.809Z,7.10
2022-10-08T13:47:42.643Z,6.43
2022-10-08T13:49:44.722Z,5.35
2022-10-08T13:51:46.457Z,6.82
2022-10-08T13:53:48.198Z,4.68
2022-10-08T13:55:50.458Z,7.57
2022-10-08T13:57:52.541Z,4.43
2022-10-08T13:59:54.220Z,7.97
2022-10-08T14:01:55.908Z,6.68
2022-10-08T14:03:57.530Z,6.07
2022-10-08T14:05:59.225Z,7.97
2022-10-08T14:08:04.768Z,7.18
2022-10-08T14:10:06.978Z,6.43
2022-10-08T14:12:09.424Z,8.73
2022-10-08T14:14:13.827Z,10.70
2022-10-08T14:16:15.455Z,5.22
2022-10-08T14:18:17.266Z,8.65
2022-10-08T14:20:19.338Z,10.38
2022-10-08T14:22:20.949Z,5.00
2022-10-08T14:24:23.549Z,6.30
2022-10-08T14:26:25.201Z,6.65
2022-10-08T14:28:26.945Z,6.60
2022-10-08T14:30:29.081Z,4.22
2022-10-08T14:32:30.660Z,5.82
2022-10-08T14:34:32.228Z,9.80
2022-10-08T14:36:36.618Z,15.95
2022-10-08T14:38:38.258Z,6.28
2022-10-08T14:40:40.128Z,9.07
2022-10-08T14:42:41.693Z,8.40
2022-10-08T14:44:43.361Z,10.35
2022-10-08T14:46:45.045Z,13.70
2022-10-08T14:48:46.604Z,8.70
2022-10-08T14:50:48.207Z,4.53
2022-10-08T14:53:08.962Z,4.85
2022-10-08T14:55:11.161Z,9.75
2022-10-08T14:57:12.819Z,8.48
2022-10-08T14:59:14.972Z,8.55
2022-10-08T15:01:16.564Z,8.85
2022-10-08T15:03:18.145Z,8.30
2022-10-08T15:05:19.967Z,9.35
2022-10-08T15:07:21.901Z,8.13
2022-10-08T15:09:23.484Z,11.30
2022-10-08T15:11:25.322Z,10.48
2022-10-08T15:13:26.863Z,9.25
2022-10-08T15:15:28.474Z,8.02
2022-10-08T15:17:30.234Z,8.05
2022-10-08T15:19:31.846Z,12.23
2022-10-08T15:21:33.540Z,7.90
2022-10-08T15:23:35.232Z,5.60
2022-10-08T15:25:37.050Z,8.68
2022-10-08T15:27:38.634Z,8.10
2022-10-08T15:29:40.374Z,10.93
2022-10-08T15:31:42.018Z,12.70
2022-10-08T15:33:48.243Z,12.85
2022-10-08T15:35:50.279Z,9.48
2022-10-08T15:37:51.877Z,9.13
2022-10-08T15:39:53.444Z,9.20
2022-10-08T15:41:55.578Z,8.25
2022-10-08T15:44:09.043Z,12.98
2022-10-08T15:46:13.516Z,8.93
2022-10-08T15:48:17.001Z,10.23
2022-10-08T15:50:18.569Z,10.00
2022-10-08T15:52:21.002Z,14.65
2022-10-08T15:54:22.778Z,10.23
2022-10-08T15:56:24.433Z,8.45
2022-10-08T15:58:49.029Z,11.73
2022-10-08T16:00:48.001Z,9.20
2022-10-08T16:02:50.187Z,10.38
2022-10-08T16:04:53.311Z,10.32
2022-10-08T16:06:55.592Z,7.88
2022-10-08T16:08:57.995Z,11.23
2022-10-08T16:11:19.687Z,13.07
2022-10-08T16:13:21.402Z,19.73
2022-10-08T16:15:23.032Z,21.42
2022-10-08T16:17:26.483Z,16.83
2022-10-08T16:19:28.486Z,21.08
2022-10-08T16:21:31.446Z,17.92
2022-10-08T16:23:34.598Z,22.00
2022-10-08T16:25:36.326Z,13.07
2022-10-08T16:27:37.933Z,12.80
2022-10-08T16:29:39.545Z,18.65
2022-10-08T16:31:42.778Z,19.98
2022-10-08T16:33:45.581Z,16.48
2022-10-08T16:35:47.372Z,12.57
2022-10-08T16:37:48.981Z,12.23
2022-10-08T16:39:50.594Z,16.75
2022-10-08T16:41:52.379Z,22.67
2022-10-08T16:43:55.579Z,18.00
2022-10-08T16:45:57.231Z,41.92
2022-10-08T16:47:59.128Z,39.03
2022-10-08T16:50:00.824Z,23.63
2022-10-08T16:52:05.206Z,23.95
2022-10-08T16:54:10.539Z,21.23
2022-10-08T16:56:12.139Z,21.73
2022-10-08T16:58:13.672Z,27.88
2022-10-08T17:00:15.502Z,18.27
2022-10-08T17:02:17.136Z,23.55
2022-10-08T17:04:19.738Z,16.95
2022-10-08T17:06:22.489Z,19.40
2022-10-08T17:08:24.060Z,30.83
2022-10-08T17:10:25.630Z,24.98
2022-10-08T17:12:27.270Z,23.30
2022-10-08T17:14:30.897Z,21.27
2022-10-08T17:16:32.580Z,17.17
2022-10-08T17:18:35.069Z,18.25
2022-10-08T17:20:36.937Z,20.00
2022-10-08T17:22:38.620Z,13.82
2022-10-08T17:24:42.352Z,18.92
2022-10-08T17:26:44.234Z,14.27
2022-10-08T17:28:47.458Z,12.90
2022-10-08T17:30:49.222Z,16.55
2022-10-08T17:32:50.893Z,65.75
2022-10-08T17:34:52.481Z,36.20
2022-10-08T17:36:54.228Z,28.10
2022-10-08T17:38:58.081Z,22.27
2022-10-08T17:40:59.686Z,19.00
2022-10-08T17:43:01.384Z,17.15
2022-10-08T17:45:03.288Z,15.70
2022-10-08T17:47:05.019Z,18.02
2022-10-08T17:49:06.869Z,19.27
2022-10-08T17:51:11.947Z,16.02
2022-10-08T17:53:13.632Z,16.30
2022-10-08T17:55:17.080Z,19.17
2022-10-08T17:57:18.957Z,22.27
2022-10-08T17:59:22.860Z,21.95
2022-10-08T18:01:32.093Z,20.75
2022-10-08T18:03:34.228Z,19.35
2022-10-08T18:05:36.082Z,20.95
2022-10-08T18:07:37.977Z,13.27
2022-10-08T18:09:39.625Z,15.75
2022-10-08T18:11:46.248Z,17.63
2022-10-08T18:13:47.806Z,18.27
2022-10-08T18:15:49.498Z,14.48
2022-10-08T18:17:51.138Z,14.40
2022-10-08T18:19:52.858Z,19.42
2022-10-08T18:21:54.544Z,16.73
2022-10-08T18:23:57.797Z,26.92
2022-10-08T18:26:21.114Z,39.40
2022-10-08T18:28:22.818Z,18.38
2022-10-08T18:30:24.417Z,32.80
2022-10-08T18:32:26.095Z,16.27
2022-10-08T18:34:27.706Z,17.48
2022-10-08T18:36:31.377Z,16.13
2022-10-08T18:40:34.845Z,15.60
2022-10-08T18:42:36.521Z,18.00
2022-10-08T18:44:38.255Z,16.60
2022-10-08T18:46:40.006Z,15.88
2022-10-08T18:48:41.830Z,16.63
2022-10-08T18:50:43.738Z,15.90
2022-10-08T18:52:45.637Z,14.27
2022-10-08T18:54:47.483Z,13.52
2022-10-08T18:56:49.152Z,19.30
2022-10-08T18:58:52.939Z,20.80
2022-10-08T19:02:58.434Z,14.38
2022-10-08T19:05:01.030Z,12.32
2022-10-08T19:07:02.703Z,17.27
2022-10-08T19:09:05.551Z,15.05
2022-10-08T19:11:19.166Z,21.00
2022-10-08T19:13:20.812Z,18.63
2022-10-08T19:15:22.661Z,18.40
2022-10-08T19:17:24.225Z,15.35
2022-10-08T19:19:27.745Z,20.30
2022-10-08T19:21:30.898Z,16.33
2022-10-08T19:23:32.563Z,17.20
2022-10-08T19:25:35.272Z,14.52
2022-10-08T19:27:36.894Z,13.43
2022-10-08T19:29:39.642Z,24.45
2022-10-08T19:31:41.293Z,12.88
2022-10-08T19:33:43.149Z,16.38
2022-10-08T19:35:44.797Z,13.27
2022-10-08T19:37:46.400Z,16.00
2022-10-08T19:39:48.785Z,10.65
2022-10-08T19:41:50.817Z,13.05
2022-10-08T19:43:53.265Z,13.82
2022-10-08T19:45:54.837Z,12.85
2022-10-08T19:47:56.653Z,14.63
2022-10-08T19:49:58.188Z,11.02
2022-10-08T19:51:59.851Z,15.98
2022-10-08T19:54:02.050Z,12.82
2022-10-08T19:56:05.513Z,15.20
2022-10-08T19:58:07.118Z,17.90
2022-10-08T20:00:09.433Z,17.00
2022-10-08T20:02:11.142Z,11.32
2022-10-08T20:04:14.063Z,20.27
2022-10-08T20:06:24.213Z,11.93
2022-10-08T20:08:26.054Z,14.82
2022-10-08T20:10:27.661Z,14.35
2022-10-08T20:12:29.477Z,12.35
2022-10-08T20:14:31.396Z,15.40
2022-10-08T20:16:35.805Z,12.38
2022-10-08T20:18:37.753Z,13.90
2022-10-08T20:20:39.345Z,12.40
2022-10-08T20:22:40.932Z,13.40
2022-10-08T20:24:42.540Z,13.48
2022-10-08T20:26:44.942Z,12.88
2022-10-08T20:28:48.303Z,17.70
2022-10-08T20:30:50.031Z,16.10
2022-10-08T20:32:51.801Z,11.82
2022-10-08T20:34:53.429Z,12.25
2022-10-08T20:36:55.089Z,12.95
2022-10-08T20:38:57.405Z,11.10
2022-10-08T20:40:59.021Z,18.67
2022-10-08T20:43:00.583Z,14.30
2022-10-08T20:45:02.257Z,16.35
2022-10-08T20:47:03.917Z,13.50
2022-10-08T20:49:06.152Z,16.30
2022-10-08T20:51:13.293Z,12.77
2022-10-08T20:53:14.902Z,13.38
2022-10-08T20:55:16.496Z,12.48
2022-10-08T20:57:18.142Z,15.18
2022-10-08T20:59:19.747Z,16.10
2022-10-08T21:01:23.948Z,13.10
2022-10-08T21:03:25.627Z,16.73
2022-10-08T21:05:27.271Z,16.83
2022-10-08T21:07:28.841Z,16.90
2022-10-08T21:09:30.488Z,12.50
2022-10-08T21:11:32.547Z,14.73
2022-10-08T21:13:34.910Z,12.45
2022-10-08T21:15:36.660Z,17.05
2022-10-08T21:17:38.226Z,17.35
2022-10-08T21:19:39.913Z,16.30
2022-10-08T21:21:41.921Z,16.92
2022-10-08T21:23:44.157Z,15.45
2022-10-08T21:25:45.716Z,16.23
2022-10-08T21:27:47.707Z,13.00
2022-10-08T21:29:50.906Z,13.82
2022-10-08T21:31:52.711Z,16.55
2022-10-08T21:33:54.840Z,12.98
2022-10-08T21:35:57.615Z,14.20
2022-10-08T21:37:59.212Z,12.68
2022-10-08T21:40:01.211Z,12.93
2022-10-08T21:42:02.839Z,12.52
2022-10-08T21:44:06.359Z,13.77
2022-10-08T21:46:09.810Z,11.85
2022-10-08T21:48:11.474Z,10.60
2022-10-08T21:50:13.063Z,12.65
2022-10-08T21:52:14.761Z,11.00
2022-10-08T21:54:16.849Z,14.20
2022-10-08T21:56:21.025Z,12.30
2022-10-08T21:58:23.030Z,16.50
2022-10-08T22:00:30.903Z,15.13
2022-10-08T22:02:32.677Z,13.20
2022-10-08T22:04:34.541Z,13.30
2022-10-08T22:06:38.984Z,15.48
2022-10-08T22:08:40.552Z,12.13
2022-10-08T22:10:42.447Z,12.55
2022-10-08T22:12:44.006Z,11.95
2022-10-08T22:14:45.593Z,13.25
2022-10-08T22:16:47.610Z,13.15
2022-10-08T22:18:49.343Z,15.63
2022-10-08T22:20:51.468Z,16.08
2022-10-08T22:22:53.173Z,13.65
2022-10-08T22:24:54.773Z,11.48
2022-10-08T22:26:56.435Z,14.30
2022-10-08T22:28:58.451Z,14.70
2022-10-08T22:31:01.357Z,15.80
2022-10-08T22:33:03.366Z,14.70
2022-10-08T22:35:05.418Z,15.40
2022-10-08T22:37:07.044Z,13.80
2022-10-08T22:39:09.110Z,11.80
2022-10-08T22:41:23.518Z,14.23
2022-10-08T22:43:25.120Z,12.80
2022-10-08T22:45:26.799Z,16.73
2022-10-08T22:47:28.520Z,11.05
2022-10-08T22:49:30.087Z,16.77
2022-10-08T22:51:31.835Z,13.48
2022-10-08T22:53:35.207Z,11.27
2022-10-08T22:55:40.406Z,12.38
2022-10-08T22:57:42.014Z,14.50
2022-10-08T22:59:43.683Z,14.48
2022-10-08T23:01:45.262Z,12.90
2022-10-08T23:03:47.645Z,10.07
2022-10-08T23:05:49.358Z,13.98
2022-10-08T23:07:57.339Z,17.55
2022-10-08T23:09:59.022Z,13.48
2022-10-08T23:12:00.806Z,14.10
2022-10-08T23:14:02.687Z,14.43
2022-10-08T23:16:11.993Z,13.27
2022-10-08T23:18:13.862Z,11.95
2022-10-08T23:20:15.571Z,13.73
2022-10-08T23:22:17.149Z,18.33
2022-10-08T23:24:19.098Z,13.60
2022-10-08T23:26:21.618Z,13.73
2022-10-08T23:28:23.908Z,11.98
2022-10-08T23:30:42.199Z,16.63
2022-10-08T23:32:44.895Z,14.60
2022-10-08T23:34:46.540Z,14.32
2022-10-08T23:36:48.324Z,11.80
2022-10-08T23:38:50.280Z,11.27
2022-10-08T23:40:51.933Z,11.95
2022-10-08T23:42:53.551Z,10.48
2022-10-08T23:44:55.122Z,13.23
2022-10-08T23:46:56.706Z,14.45
2022-10-08T23:48:59.483Z,12.05
2022-10-08T23:51:01.686Z,13.82
2022-10-08T23:53:03.561Z,15.07
2022-10-08T23:55:05.781Z,12.60
2022-10-08T23:57:07.410Z,10.68
2022-10-08T23:59:09.107Z,12.32
